createdAt,value
2023-04-27T00:02:00.383Z,99.90
2023-04-27T00:04:29.719Z,99.90
2023-04-27T00:06:57.878Z,99.90
2023-04-27T00:09:25.787Z,99.90
2023-04-27T00:11:53.672Z,99.90
2023-04-27T00:14:21.852Z,99.90
2023-04-27T00:16:49.783Z,99.90
2023-04-27T00:19:17.590Z,99.90
2023-04-27T00:21:47.016Z,99.90
2023-04-27T00:24:14.875Z,99.90
2023-04-27T00:26:42.657Z,99.90
2023-04-27T00:29:10.432Z,99.90
2023-04-27T00:31:38.338Z,99.90
2023-04-27T00:34:06.246Z,99.90
2023-04-27T00:36:35.393Z,99.90
2023-04-27T00:39:06.361Z,99.90
2023-04-27T00:41:34.156Z,99.90
2023-04-27T00:44:01.993Z,99.90
2023-04-27T00:46:30.737Z,99.90
2023-04-27T00:48:58.923Z,99.90
2023-04-27T00:51:28.152Z,99.90
2023-04-27T00:53:57.091Z,99.90
2023-04-27T00:56:26.264Z,99.90
2023-04-27T00:58:54.080Z,99.90
2023-04-27T01:01:21.916Z,99.90
2023-04-27T01:03:50.241Z,99.90
2023-04-27T01:06:18.191Z,99.90
2023-04-27T01:08:46.859Z,99.90
2023-04-27T01:11:14.637Z,99.90
2023-04-27T01:13:43.830Z,99.90
2023-04-27T01:16:11.630Z,99.90
2023-04-27T01:18:40.518Z,99.90
2023-04-27T01:21:08.359Z,99.90
2023-04-27T01:23:37.585Z,99.90
2023-04-27T01:26:05.680Z,99.90
2023-04-27T01:28:42.969Z,99.90
2023-04-27T01:31:12.278Z,99.90
2023-04-27T01:33:40.449Z,99.90
2023-04-27T01:36:09.558Z,99.90
2023-04-27T01:38:38.770Z,99.90
2023-04-27T01:41:08.933Z,99.90
2023-04-27T01:43:37.945Z,99.90
2023-04-27T01:46:09.692Z,99.90
2023-04-27T01:48:37.796Z,99.90
2023-04-27T01:51:05.679Z,99.90
2023-04-27T01:53:33.817Z,99.90
2023-04-27T01:56:03.490Z,99.90
2023-04-27T01:58:31.448Z,99.90
2023-04-27T02:00:59.221Z,99.90
2023-04-27T02:03:27.341Z,99.90
2023-04-27T02:05:55.412Z,99.90
2023-04-27T02:08:23.199Z,99.90
2023-04-27T02:10:51.168Z,99.90
2023-04-27T02:13:21.145Z,99.90
2023-04-27T02:15:49.007Z,99.90
2023-04-27T02:18:17.029Z,99.90
2023-04-27T02:20:44.840Z,99.90
2023-04-27T02:23:13.024Z,99.90
2023-04-27T02:25:42.948Z,99.90
2023-04-27T02:28:10.827Z,99.90
2023-04-27T02:30:40.634Z,99.90
2023-04-27T02:33:08.601Z,99.90
2023-04-27T02:35:36.438Z,99.90
2023-04-27T02:38:04.232Z,99.90
2023-04-27T02:44:38.002Z,99.90
2023-04-27T02:47:07.577Z,99.90
2023-04-27T02:49:37.961Z,99.90
2023-04-27T02:52:06.554Z,99.90
2023-04-27T02:54:34.461Z,99.90
2023-04-27T02:57:02.811Z,99.90
2023-04-27T02:59:30.692Z,99.90
2023-04-27T03:01:58.683Z,99.90
2023-04-27T03:04:28.218Z,99.90
2023-04-27T03:06:56.401Z,99.90
2023-04-27T03:09:24.221Z,99.90
2023-04-27T03:11:52.905Z,99.90
2023-04-27T03:14:20.881Z,99.90
2023-04-27T03:16:48.812Z,99.90
2023-04-27T03:19:16.788Z,99.90
2023-04-27T03:21:45.940Z,99.90
2023-04-27T03:24:13.756Z,99.90
2023-04-27T03:26:41.574Z,99.90
2023-04-27T03:29:09.944Z,99.90
2023-04-27T03:31:37.946Z,99.90
2023-04-27T03:34:05.889Z,99.90
2023-04-27T03:36:33.692Z,99.90
2023-04-27T03:39:03.129Z,99.90
2023-04-27T03:41:30.973Z,99.90
2023-04-27T03:43:58.799Z,99.90
2023-04-27T03:46:26.708Z,99.90
2023-04-27T03:48:54.562Z,99.90
2023-04-27T03:51:22.394Z,99.90
2023-04-27T03:53:50.302Z,99.90
2023-04-27T03:56:19.570Z,99.90
2023-04-27T03:58:47.777Z,99.90
2023-04-27T04:01:16.569Z,99.90
2023-04-27T04:03:44.614Z,99.90
2023-04-27T04:06:12.619Z,99.90
2023-04-27T04:08:40.479Z,99.90
2023-04-27T04:11:08.361Z,99.90
2023-04-27T04:13:37.665Z,99.90
2023-04-27T04:16:06.900Z,99.90
2023-04-27T04:18:35.145Z,99.90
2023-04-27T04:21:03.552Z,99.90
2023-04-27T04:23:32.734Z,99.90
2023-04-27T04:26:02.128Z,99.90
2023-04-27T04:28:30.664Z,99.90
2023-04-27T04:31:01.752Z,99.90
2023-04-27T04:33:29.580Z,99.90
2023-04-27T04:35:58.650Z,99.90
2023-04-27T04:38:26.677Z,99.90
2023-04-27T04:40:54.488Z,99.90
2023-04-27T04:43:22.557Z,99.90
2023-04-27T04:45:50.891Z,99.90
2023-04-27T04:48:20.349Z,99.90
2023-04-27T04:50:48.169Z,99.90
2023-04-27T04:53:16.031Z,99.90
2023-04-27T04:55:43.841Z,99.90
2023-04-27T04:58:11.753Z,99.90
2023-04-27T05:00:39.596Z,99.90
2023-04-27T05:03:08.086Z,99.90
2023-04-27T05:05:37.794Z,99.90
2023-04-27T05:08:06.051Z,99.90
2023-04-27T05:10:33.878Z,99.90
2023-04-27T05:13:01.716Z,99.90
2023-04-27T05:15:29.527Z,99.90
2023-04-27T05:17:57.345Z,99.90
2023-04-27T05:20:25.316Z,99.90
2023-04-27T05:22:54.452Z,99.90
2023-04-27T05:25:22.214Z,99.90
2023-04-27T05:27:49.968Z,99.90
2023-04-27T05:30:17.894Z,99.90
2023-04-27T05:32:45.678Z,99.90
2023-04-27T05:35:13.500Z,99.90
2023-04-27T05:37:41.324Z,99.90
2023-04-27T05:40:11.443Z,99.90
2023-04-27T05:42:39.334Z,99.90
2023-04-27T05:45:08.534Z,99.90
2023-04-27T05:47:36.483Z,99.90
2023-04-27T05:50:04.702Z,99.90
2023-04-27T05:52:32.616Z,99.90
2023-04-27T05:55:00.748Z,99.90
2023-04-27T05:57:29.945Z,99.90
2023-04-27T05:59:57.833Z,99.90
2023-04-27T06:02:26.020Z,99.90
2023-04-27T06:04:53.998Z,99.90
2023-04-27T06:07:21.837Z,99.90
2023-04-27T06:09:49.660Z,99.90
2023-04-27T06:12:17.507Z,99.90
2023-04-27T06:14:46.690Z,99.90
2023-04-27T06:17:14.512Z,99.90
2023-04-27T06:19:42.397Z,99.90
2023-04-27T06:22:11.231Z,99.90
2023-04-27T06:24:39.160Z,99.90
2023-04-27T06:27:07.363Z,99.90
2023-04-27T06:29:35.269Z,99.90
2023-04-27T06:32:06.696Z,99.90
2023-04-27T06:34:35.130Z,99.90
2023-04-27T06:37:03.058Z,99.90
2023-04-27T06:39:32.012Z,99.90
2023-04-27T06:42:00.112Z,99.90
2023-04-27T06:44:27.981Z,99.90
2023-04-27T06:46:55.822Z,99.90
2023-04-27T06:49:25.269Z,99.90
2023-04-27T06:51:53.061Z,99.90
2023-04-27T06:54:20.950Z,99.90
2023-04-27T06:56:48.817Z,99.90
2023-04-27T06:59:16.664Z,99.90
2023-04-27T07:01:44.600Z,99.90
2023-04-27T07:04:12.590Z,99.90
2023-04-27T07:06:41.829Z,99.90
2023-04-27T07:09:19.970Z,99.90
2023-04-27T07:11:54.311Z,99.90
2023-04-27T07:14:22.197Z,99.90
2023-04-27T07:16:50.008Z,99.90
2023-04-27T07:19:17.987Z,99.90
2023-04-27T07:21:47.169Z,99.90
2023-04-27T07:24:14.991Z,99.90
2023-04-27T07:26:42.878Z,99.90
2023-04-27T07:29:25.539Z,99.90
2023-04-27T07:31:55.687Z,99.90
2023-04-27T07:34:23.869Z,99.90
2023-04-27T07:36:54.105Z,99.90
2023-04-27T07:39:22.322Z,99.90
2023-04-27T07:41:50.389Z,99.90
2023-04-27T07:44:19.208Z,99.90
2023-04-27T07:46:48.873Z,99.90
2023-04-27T07:49:16.996Z,99.90
2023-04-27T07:51:44.840Z,99.90
2023-04-27T07:54:18.442Z,99.90
2023-04-27T07:56:46.273Z,99.90
2023-04-27T07:59:15.504Z,99.90
2023-04-27T08:01:43.708Z,99.90
2023-04-27T08:04:12.553Z,99.90
2023-04-27T08:06:41.356Z,99.90
2023-04-27T08:09:10.002Z,99.90
2023-04-27T08:11:39.207Z,99.90
2023-04-27T08:14:08.966Z,99.90
2023-04-27T08:16:36.974Z,99.90
2023-04-27T08:19:04.918Z,99.90
2023-04-27T08:21:32.801Z,99.90
2023-04-27T08:24:00.638Z,99.40
2023-04-27T08:26:28.478Z,99.90
2023-04-27T08:28:57.823Z,99.90
2023-04-27T08:31:26.367Z,99.90
2023-04-27T08:33:54.991Z,99.70
2023-04-27T08:36:24.334Z,99.50
2023-04-27T08:38:52.700Z,98.50
2023-04-27T08:41:22.524Z,98.80
2023-04-27T08:43:52.022Z,98.40
2023-04-27T08:46:22.453Z,97.80
2023-04-27T08:48:52.075Z,97.70
2023-04-27T08:51:20.243Z,97.90
2023-04-27T08:53:51.404Z,97.30
2023-04-27T08:56:19.664Z,97.70
2023-04-27T08:58:47.663Z,96.30
2023-04-27T09:01:15.996Z,96.10
2023-04-27T09:03:46.962Z,96.50
2023-04-27T09:06:16.542Z,96.30
2023-04-27T09:08:45.742Z,95.60
2023-04-27T09:11:13.959Z,95.30
2023-04-27T09:13:45.035Z,96.90
2023-04-27T09:16:14.918Z,95.50
2023-04-27T09:18:45.378Z,95.80
2023-04-27T09:21:23.758Z,95.40
2023-04-27T09:23:52.155Z,95.10
2023-04-27T09:26:24.074Z,94.70
2023-04-27T09:28:54.656Z,94.80
2023-04-27T09:31:23.462Z,94.30
2023-04-27T09:33:57.479Z,94.70
2023-04-27T09:36:26.388Z,93.60
2023-04-27T09:38:54.707Z,94.60
2023-04-27T09:41:23.308Z,92.70
2023-04-27T09:43:52.691Z,93.60
2023-04-27T09:46:21.821Z,92.10
2023-04-27T09:48:51.630Z,93.30
2023-04-27T09:51:20.877Z,93.60
2023-04-27T09:53:53.935Z,92.40
2023-04-27T09:56:30.922Z,93.40
2023-04-27T09:59:19.024Z,93.90
2023-04-27T10:01:49.713Z,92.70
2023-04-27T10:04:35.289Z,90.30
2023-04-27T10:07:08.426Z,90.80
2023-04-27T10:09:38.790Z,91.50
2023-04-27T10:12:18.520Z,92.10
2023-04-27T10:14:51.018Z,90.10
2023-04-27T10:17:20.081Z,88.30
2023-04-27T10:19:59.247Z,85.20
2023-04-27T10:22:40.808Z,87.50
2023-04-27T10:25:17.938Z,83.90
2023-04-27T10:27:51.875Z,82.60
2023-04-27T10:30:21.481Z,83.60
2023-04-27T10:32:53.765Z,83.30
2023-04-27T10:35:22.597Z,82.70
2023-04-27T10:37:53.030Z,82.60
2023-04-27T10:40:21.161Z,81.50
2023-04-27T10:42:49.803Z,80.70
2023-04-27T10:45:31.215Z,80.20
2023-04-27T10:48:02.014Z,80.20
2023-04-27T10:50:31.976Z,81.30
2023-04-27T10:53:05.794Z,79.00
2023-04-27T10:55:34.940Z,79.70
2023-04-27T10:58:04.042Z,76.90
2023-04-27T11:00:33.885Z,76.70
2023-04-27T11:03:14.165Z,79.40
2023-04-27T11:05:45.007Z,79.40
2023-04-27T11:08:15.662Z,77.30
2023-04-27T11:10:46.007Z,75.50
2023-04-27T11:13:15.221Z,74.20
2023-04-27T11:15:48.034Z,73.70
2023-04-27T11:18:17.280Z,74.10
2023-04-27T11:20:46.549Z,73.80
2023-04-27T11:23:26.069Z,74.10
2023-04-27T11:25:54.576Z,74.30
2023-04-27T11:28:23.402Z,76.20
2023-04-27T11:30:57.476Z,73.70
2023-04-27T11:33:25.522Z,75.00
2023-04-27T11:35:53.833Z,74.70
2023-04-27T11:38:22.838Z,73.60
2023-04-27T11:41:03.614Z,74.20
2023-04-27T11:43:31.875Z,75.10
2023-04-27T11:46:03.481Z,73.70
2023-04-27T11:48:31.426Z,73.20
2023-04-27T11:51:01.083Z,74.00
2023-04-27T11:53:33.830Z,75.40
2023-04-27T11:56:05.403Z,74.90
2023-04-27T11:58:34.727Z,76.90
2023-04-27T12:01:04.146Z,74.80
2023-04-27T12:03:32.524Z,73.80
2023-04-27T12:06:16.151Z,73.60
2023-04-27T12:08:48.821Z,73.90
2023-04-27T12:11:18.079Z,73.30
2023-04-27T12:13:47.099Z,75.80
2023-04-27T12:16:15.200Z,73.70
2023-04-27T12:18:43.076Z,72.70
2023-04-27T12:21:10.908Z,73.50
2023-04-27T12:23:38.741Z,73.40
2023-04-27T12:26:06.665Z,73.80
2023-04-27T12:28:35.957Z,72.50
2023-04-27T12:31:04.970Z,73.90
2023-04-27T12:33:33.166Z,72.70
2023-04-27T12:36:01.152Z,73.70
2023-04-27T12:38:29.239Z,73.40
2023-04-27T12:40:57.159Z,73.10
2023-04-27T12:43:25.106Z,73.40
2023-04-27T12:45:54.291Z,75.00
2023-04-27T12:48:23.188Z,72.80
2023-04-27T12:50:51.038Z,73.10
2023-04-27T12:53:18.862Z,73.90
2023-04-27T12:55:47.272Z,74.60
2023-04-27T12:58:15.601Z,74.40
2023-04-27T13:00:43.469Z,73.50
2023-04-27T13:03:12.902Z,72.10
2023-04-27T13:05:40.848Z,72.90
2023-04-27T13:08:09.012Z,72.50
2023-04-27T13:10:37.485Z,72.00
2023-04-27T13:13:06.819Z,70.90
2023-04-27T13:15:34.763Z,69.40
2023-04-27T13:18:05.362Z,69.90
2023-04-27T13:20:34.688Z,70.60
2023-04-27T13:23:03.788Z,70.40
2023-04-27T13:25:31.617Z,70.10
2023-04-27T13:27:59.682Z,70.40
2023-04-27T13:30:27.599Z,69.40
2023-04-27T13:33:04.359Z,69.20
2023-04-27T13:35:40.234Z,69.70
2023-04-27T13:38:08.354Z,70.30
2023-04-27T13:40:36.272Z,68.50
2023-04-27T13:43:04.081Z,70.10
2023-04-27T13:45:32.303Z,69.70
2023-04-27T13:48:00.211Z,68.00
2023-04-27T13:50:28.061Z,67.20
2023-04-27T13:52:57.362Z,67.00
2023-04-27T13:55:25.849Z,65.70
2023-04-27T13:57:53.653Z,66.00
2023-04-27T14:00:21.985Z,65.40
2023-04-27T14:02:49.933Z,66.80
2023-04-27T14:05:17.827Z,66.20
2023-04-27T14:07:45.704Z,66.70
2023-04-27T14:10:15.270Z,67.80
2023-04-27T14:12:43.197Z,67.50
2023-04-27T14:15:11.607Z,68.10
2023-04-27T14:17:39.532Z,66.20
2023-04-27T14:20:08.811Z,65.80
2023-04-27T14:22:37.150Z,66.60
2023-04-27T14:25:05.493Z,67.10
2023-04-27T14:27:34.657Z,67.30
2023-04-27T14:30:02.838Z,68.70
2023-04-27T14:32:31.097Z,68.10
2023-04-27T14:34:58.943Z,69.40
2023-04-27T14:37:27.009Z,68.70
2023-04-27T14:39:54.820Z,69.50
2023-04-27T14:42:22.960Z,70.10
2023-04-27T14:44:52.188Z,70.90
2023-04-27T14:47:20.131Z,69.90
2023-04-27T14:49:48.046Z,71.90
2023-04-27T14:52:15.884Z,71.40
2023-04-27T14:54:43.733Z,71.70
2023-04-27T14:57:11.542Z,73.50
2023-04-27T14:59:39.445Z,71.00
2023-04-27T15:02:08.633Z,71.40
2023-04-27T15:04:37.612Z,72.50
2023-04-27T15:07:05.601Z,72.60
2023-04-27T15:09:34.660Z,73.00
2023-04-27T15:12:03.335Z,72.70
2023-04-27T15:14:31.237Z,73.80
2023-04-27T15:16:59.100Z,73.70
2023-04-27T15:19:28.277Z,73.90
2023-04-27T15:21:56.117Z,74.60
2023-04-27T15:24:23.947Z,75.10
2023-04-27T15:26:51.927Z,74.00
2023-04-27T15:29:19.754Z,74.40
2023-04-27T15:31:48.584Z,74.10
2023-04-27T15:34:16.529Z,74.60
2023-04-27T15:36:45.743Z,74.10
2023-04-27T15:39:13.760Z,74.00
2023-04-27T15:41:41.843Z,73.20
2023-04-27T15:44:09.844Z,73.70
2023-04-27T15:46:37.712Z,74.20
2023-04-27T15:49:05.941Z,73.70
2023-04-27T15:51:33.853Z,72.40
2023-04-27T15:54:03.284Z,71.90
2023-04-27T15:56:31.245Z,72.90
2023-04-27T15:58:59.187Z,72.40
2023-04-27T16:01:27.508Z,72.10
2023-04-27T16:03:55.627Z,73.10
2023-04-27T16:06:23.758Z,72.70
2023-04-27T16:08:51.606Z,73.50
2023-04-27T16:11:20.765Z,74.60
2023-04-27T16:13:48.782Z,73.70
2023-04-27T16:16:17.131Z,74.40
2023-04-27T16:18:45.011Z,74.90
2023-04-27T16:21:12.880Z,75.20
2023-04-27T16:23:40.709Z,75.50
2023-04-27T16:26:08.571Z,75.90
2023-04-27T16:28:38.076Z,76.30
2023-04-27T16:31:06.094Z,76.50
2023-04-27T16:33:33.930Z,76.90
2023-04-27T16:36:01.780Z,76.30
2023-04-27T16:38:29.595Z,75.70
2023-04-27T16:40:58.238Z,75.90
2023-04-27T16:43:26.258Z,76.70
2023-04-27T16:45:55.733Z,76.50
2023-04-27T16:48:23.928Z,77.20
2023-04-27T16:50:53.228Z,77.40
2023-04-27T16:53:23.564Z,77.50
2023-04-27T16:55:51.657Z,77.80
2023-04-27T16:58:19.479Z,78.40
2023-04-27T17:00:47.551Z,78.80
2023-04-27T17:03:16.814Z,79.60
2023-04-27T17:05:44.678Z,80.10
2023-04-27T17:08:13.377Z,80.30
2023-04-27T17:10:41.530Z,80.80
2023-04-27T17:13:11.011Z,81.40
2023-04-27T17:15:39.126Z,81.20
2023-04-27T17:18:08.258Z,81.50
2023-04-27T17:20:38.852Z,81.60
2023-04-27T17:23:08.267Z,81.10
2023-04-27T17:25:36.091Z,81.90
2023-04-27T17:28:04.510Z,82.20
2023-04-27T17:30:32.356Z,81.60
2023-04-27T17:33:00.250Z,81.90
2023-04-27T17:35:28.234Z,82.00
2023-04-27T17:37:57.467Z,81.90
2023-04-27T17:40:25.511Z,82.70
2023-04-27T17:42:56.267Z,83.30
2023-04-27T17:45:26.359Z,84.10
2023-04-27T17:47:54.246Z,83.20
2023-04-27T17:50:22.638Z,82.70
2023-04-27T17:52:51.295Z,83.00
2023-04-27T17:55:20.781Z,82.90
2023-04-27T17:57:48.597Z,83.00
2023-04-27T18:00:18.183Z,82.70
2023-04-27T18:02:48.157Z,83.00
2023-04-27T18:05:16.267Z,83.20
2023-04-27T18:07:46.080Z,84.10
2023-04-27T18:10:14.184Z,83.70
2023-04-27T18:12:43.481Z,86.00
2023-04-27T18:15:11.866Z,89.40
2023-04-27T18:17:39.719Z,90.20
2023-04-27T18:20:10.420Z,90.40
2023-04-27T18:22:40.094Z,88.30
2023-04-27T18:25:09.532Z,89.50
2023-04-27T18:27:38.246Z,90.90
2023-04-27T18:30:14.643Z,91.30
2023-04-27T18:32:42.494Z,91.60
2023-04-27T18:35:10.855Z,92.20
2023-04-27T18:37:38.713Z,92.40
2023-04-27T18:40:08.117Z,93.10
2023-04-27T18:42:36.114Z,93.30
2023-04-27T18:45:04.067Z,93.80
2023-04-27T18:47:33.279Z,94.30
2023-04-27T18:50:01.103Z,95.00
2023-04-27T18:52:29.247Z,96.00
2023-04-27T18:54:57.048Z,96.40
2023-04-27T18:57:26.403Z,97.00
2023-04-27T18:59:54.500Z,97.60
2023-04-27T19:02:22.508Z,98.10
2023-04-27T19:04:57.182Z,98.30
2023-04-27T19:07:35.568Z,98.40
2023-04-27T19:10:03.751Z,98.80
2023-04-27T19:12:31.900Z,99.20
2023-04-27T19:14:59.771Z,99.70
2023-04-27T19:17:27.729Z,99.90
2023-04-27T19:19:57.037Z,99.90
2023-04-27T19:22:26.899Z,99.90
2023-04-27T19:24:54.828Z,99.80
2023-04-27T19:27:22.784Z,99.90
2023-04-27T19:29:52.984Z,99.90
2023-04-27T19:32:21.059Z,99.90
2023-04-27T19:34:49.612Z,99.90
2023-04-27T19:37:18.770Z,99.90
2023-04-27T19:39:46.856Z,99.90
2023-04-27T19:42:15.156Z,99.90
2023-04-27T19:44:43.052Z,99.90
2023-04-27T19:47:11.686Z,99.90
2023-04-27T19:49:39.913Z,99.90
2023-04-27T19:52:07.769Z,99.90
2023-04-27T19:54:38.175Z,99.90
2023-04-27T19:57:06.168Z,99.90
2023-04-27T19:59:34.024Z,99.90
2023-04-27T20:02:01.940Z,99.90
2023-04-27T20:04:29.979Z,99.90
2023-04-27T20:06:57.933Z,99.90
2023-04-27T20:09:25.743Z,99.90
2023-04-27T20:11:59.124Z,99.90
2023-04-27T20:14:30.356Z,99.90
2023-04-27T20:17:02.822Z,99.90
2023-04-27T20:19:35.096Z,99.90
2023-04-27T20:22:10.430Z,99.90
2023-04-27T20:24:41.028Z,99.90
2023-04-27T20:27:15.058Z,99.90
2023-04-27T20:29:48.665Z,99.90
2023-04-27T20:32:18.913Z,99.90
2023-04-27T20:34:54.018Z,99.90
2023-04-27T20:37:27.169Z,99.90
2023-04-27T20:40:19.462Z,99.90
2023-04-27T20:43:01.704Z,99.90
2023-04-27T20:45:31.034Z,99.90
2023-04-27T20:47:58.941Z,99.90
2023-04-27T20:50:27.026Z,99.90
2023-04-27T20:52:54.837Z,99.90
2023-04-27T20:55:22.837Z,99.90
2023-04-27T20:57:52.032Z,99.90
2023-04-27T21:00:20.157Z,99.90
2023-04-27T21:02:48.703Z,99.90
2023-04-27T21:05:16.676Z,99.90
2023-04-27T21:07:44.516Z,99.90
2023-04-27T21:10:12.762Z,99.90
2023-04-27T21:12:41.110Z,99.90
2023-04-27T21:15:10.938Z,99.90
2023-04-27T21:17:38.787Z,99.90
2023-04-27T21:20:09.696Z,99.90
2023-04-27T21:22:37.606Z,99.90
2023-04-27T21:25:06.000Z,99.90
2023-04-27T21:27:33.839Z,99.90
2023-04-27T21:30:01.662Z,99.90
2023-04-27T21:32:30.853Z,99.90
2023-04-27T21:34:58.700Z,99.90
2023-04-27T21:37:26.861Z,99.90
2023-04-27T21:39:54.709Z,99.90
2023-04-27T21:42:22.574Z,99.90
2023-04-27T21:44:50.364Z,99.90
2023-04-27T21:47:18.240Z,99.90
2023-04-27T21:49:47.427Z,99.90
2023-04-27T21:52:15.318Z,99.90
2023-04-27T21:54:43.150Z,99.90
2023-04-27T21:57:10.983Z,99.90
2023-04-27T21:59:38.812Z,99.90
2023-04-27T22:02:06.841Z,99.90
2023-04-27T22:04:38.287Z,99.90
2023-04-27T22:07:08.745Z,99.90
2023-04-27T22:09:36.926Z,99.90
2023-04-27T22:12:05.693Z,99.90
2023-04-27T22:14:33.554Z,99.90
2023-04-27T22:17:01.390Z,99.90
2023-04-27T22:19:30.469Z,99.90
2023-04-27T22:21:58.373Z,99.90
2023-04-27T22:24:27.549Z,99.90
2023-04-27T22:26:55.423Z,99.90
2023-04-27T22:29:23.169Z,99.90
2023-04-27T22:31:51.633Z,99.90
2023-04-27T22:34:19.629Z,99.90
2023-04-27T22:36:47.473Z,99.90
2023-04-27T22:39:15.286Z,99.90
2023-04-27T22:41:45.972Z,99.90
2023-04-27T22:44:13.972Z,99.90
2023-04-27T22:46:44.005Z,99.90
2023-04-27T22:49:11.803Z,99.90
2023-04-27T22:51:39.592Z,99.90
2023-04-27T22:54:07.478Z,99.90
2023-04-27T22:56:35.412Z,99.90
2023-04-27T22:59:04.581Z,99.90
2023-04-27T23:01:32.730Z,99.90
2023-04-27T23:04:00.799Z,99.90
2023-04-27T23:06:28.630Z,99.90
2023-04-27T23:08:56.583Z,99.90
2023-04-27T23:11:26.911Z,99.90
2023-04-27T23:13:57.358Z,99.90
2023-04-27T23:16:26.771Z,99.90
2023-04-27T23:18:54.593Z,99.90
2023-04-27T23:21:22.418Z,99.90
2023-04-27T23:23:50.201Z,99.90
2023-04-27T23:26:18.061Z,99.90
2023-04-27T23:28:45.954Z,99.90
2023-04-27T23:31:13.898Z,99.90
2023-04-27T23:33:43.127Z,99.90
2023-04-27T23:36:10.943Z,99.90
2023-04-27T23:38:38.721Z,99.90
2023-04-27T23:41:06.514Z,99.90
2023-04-27T23:43:34.698Z,99.90
2023-04-27T23:46:02.665Z,99.90
2023-04-27T23:48:30.469Z,99.90
2023-04-27T23:51:03.122Z,99.90
2023-04-27T23:53:31.401Z,99.90
2023-04-27T23:55:59.170Z,99.90
2023-04-27T23:58:27.257Z,99.90
